Super Jet — IINO — position and weather

sailwx.info

Track history (hours):
 
Tides and Currents Weather Stations Pressure Air Temp Water Temp Dewpoint Dewpoint Depression Visibility Wind Speed Wind Dir Waves Ship Positions

Super Jet

Last reported at 2017-Nov-19 16:04 UTC. Time now 2017-Nov-19 21:54 UTC.
Position N 40°46' E 014°17'.

Length 45 m; draft 1.2 m.

Type: High speed craft. MMSI: 247540000.

Date/timePositionNaut miles runAvg speedWind from/ knotsBaromVisibWave heightAir tempDewpointWater temp
2017-Nov-19 16:04N 40°46' E 014°17'122.6
2017-Nov-19 16:00N 40°45' E 014°17'9 5.8
2017-Nov-19 14:21N 40°35' E 014°16'927.0
2017-Nov-19 14:01N 40°45' E 014°16'2 1.0
2017-Nov-19 12:13N 40°47' E 014°17'627.2
2017-Nov-19 12:01N 40°41' E 014°16'6 9.1
2017-Nov-19 11:21N 40°35' E 014°15'823.2
2017-Nov-19 11:01N 40°43' E 014°16'4 4.0
2017-Nov-19 10:08N 40°46' E 014°17'327.2
2017-Nov-19 10:01N 40°43' E 014°16'8 9.9
2017-Nov-19 09:12N 40°35' E 014°15'526.6
2017-Nov-19 09:01N 40°40' E 014°16'7 4.9
2017-Nov-19 07:39N 40°47' E 014°18'426.7
2017-Nov-19 07:30N 40°43' E 014°18'8 9.3
2017-Nov-19 06:38N 40°35' E 014°15'11 0.8
2017-Nov-18 16:08N 40°47' E 014°17'322.5
2017-Nov-18 16:00N 40°44' E 014°17'9 6.5
2017-Nov-18 14:40N 40°35' E 014°15'321.0
2017-Nov-18 14:30N 40°38' E 014°16'8 3.5
2017-Nov-18 12:13N 40°46' E 014°17'526.9
2017-Nov-18 12:00N 40°41' E 014°16'6 8.9
2017-Nov-18 11:22N 40°35' E 014°15'823.5
2017-Nov-18 11:00N 40°43' E 014°16'3 3.1
2017-Nov-18 10:08N 40°46' E 014°17'326.9
2017-Nov-18 10:01N 40°43' E 014°17'810.3
2017-Nov-18 09:14N 40°35' E 014°15'626.2
2017-Nov-18 09:00N 40°41' E 014°16'6 4.6
2017-Nov-18 07:39N 40°47' E 014°17'427.0
2017-Nov-18 07:31N 40°43' E 014°17'3 0.2
2017-Nov-17 16:04N 40°46' E 014°17'122.3
2017-Nov-17 16:01N 40°45' E 014°17'10 6.0
2017-Nov-17 14:23N 40°35' E 014°15'1026.4
2017-Nov-17 14:00N 40°45' E 014°17'1 0.7
2017-Nov-17 12:21N 40°46' E 014°18'824.8
2017-Nov-17 12:00N 40°38' E 014°17'2 4.5
2017-Nov-17 11:28N 40°35' E 014°16'1021.3
2017-Nov-17 11:00N 40°45' E 014°18'1 1.3
2017-Nov-17 10:11N 40°46' E 014°18'526.4
2017-Nov-17 10:00N 40°42' E 014°19'7 8.9
2017-Nov-17 09:16N 40°35' E 014°16'726.0
2017-Nov-17 09:00N 40°42' E 014°19'4 3.2
2017-Nov-17 07:40N 40°46' E 014°18'426.0
2017-Nov-17 07:31N 40°42' E 014°18'7 8.3
2017-Nov-17 06:39N 40°35' E 014°15'425.9
2017-Nov-17 06:30N 40°39' E 014°16'8 0.6
2017-Nov-16 16:11N 40°47' E 014°17'422.1
2017-Nov-16 16:00N 40°43' E 014°16'9 5.2
2017-Nov-16 14:22N 40°35' E 014°15'1027.5
2017-Nov-16 14:00N 40°45' E 014°17'2 1.0
2017-Nov-16 12:18N 40°47' E 014°17'724.8
2017-Nov-16 12:00N 40°39' E 014°16'5 7.3
2017-Nov-16 11:22N 40°35' E 014°15'923.7
2017-Nov-16 11:00N 40°43' E 014°17'3 4.1
2017-Nov-16 10:12N 40°46' E 014°17'526.5
2017-Nov-16 10:00N 40°41' E 014°17'7 8.2
2017-Nov-16 09:12N 40°35' E 014°16'527.3
2017-Nov-16 09:01N 40°40' E 014°17'6 4.6
2017-Nov-16 07:43N 40°46' E 014°17'526.1
2017-Nov-16 07:31N 40°41' E 014°17'6 7.3
2017-Nov-16 06:42N 40°35' E 014°15'525.7
2017-Nov-16 06:31N 40°40' E 014°17'8 0.5
2017-Nov-15 16:11N 40°47' E 014°17'421.8
2017-Nov-15 16:01N 40°43' E 014°16'8 2.5
2017-Nov-15 12:57N 40°36' E 014°17'510.4
2017-Nov-15 12:30N 40°38' E 014°23'6 5.1
2017-Nov-15 11:18N 40°35' E 014°15'725.9
2017-Nov-15 11:00N 40°43' E 014°16'4 4.2
2017-Nov-15 10:08N 40°46' E 014°17'326.4
2017-Nov-15 10:00N 40°43' E 014°17'810.0
2017-Nov-15 09:14N 40°35' E 014°15'524.5
2017-Nov-15 09:00N 40°41' E 014°16'6 4.8
2017-Nov-15 07:39N 40°47' E 014°17'426.7
2017-Nov-15 07:30N 40°43' E 014°17'810.0
2017-Nov-15 06:42N 40°35' E 014°15'12 0.9
2017-Nov-14 16:15N 40°47' E 014°17'521.0
2017-Nov-14 16:00N 40°42' E 014°17'7 4.5
2017-Nov-14 14:22N 40°35' E 014°15'926.9
2017-Nov-14 14:01N 40°44' E 014°17'2 1.4
2017-Nov-14 12:16N 40°47' E 014°17'725.8
2017-Nov-14 12:01N 40°40' E 014°16'5 7.3
2017-Nov-14 11:18N 40°35' E 014°16'825.8
2017-Nov-14 11:00N 40°43' E 014°17'4 5.2
2017-Nov-14 10:10N 40°47' E 014°17'426.4
2017-Nov-14 10:01N 40°43' E 014°16'810.0
2017-Nov-14 09:13N 40°35' E 014°16'525.5
2017-Nov-14 09:01N 40°40' E 014°17'8 5.9
2017-Nov-14 07:44N 40°48' E 014°16'625.7
2017-Nov-14 07:30N 40°42' E 014°15'7 9.3
2017-Nov-14 06:44N 40°35' E 014°16'625.5
2017-Nov-14 06:30N 40°40' E 014°17'5 0.1
2017-Nov-12 10:07N 40°46' E 014°17'326.6
2017-Nov-12 10:00N 40°43' E 014°16'810.3
2017-Nov-12 09:16N 40°35' E 014°15'725.0
2017-Nov-12 09:00N 40°42' E 014°16'4 3.2
2017-Nov-12 07:38N 40°46' E 014°17'326.6
2017-Nov-12 07:31N 40°43' E 014°16'8 9.2
2017-Nov-12 06:38N 40°35' E 014°15'326.7
2017-Nov-12 06:31N 40°39' E 014°16'7 0.5
2017-Nov-11 16:08N 40°46' E 014°17'322.2
2017-Nov-11 16:00N 40°43' E 014°17'8 5.0
2017-Nov-11 14:21N 40°35' E 014°16'926.7
2017-Nov-11 14:00N 40°44' E 014°17'2 0.9
2017-Nov-11 12:21N 40°45' E 014°17'926.6
2017-Nov-11 12:00N 40°36' E 014°16'0 0.6
2017-Nov-11 11:30N 40°36' E 014°16'1121.9
2017-Nov-11 10:59N 40°47' E 014°17'2 2.0
2017-Nov-11 10:12N 40°46' E 014°17'526.4
2017-Nov-11 10:01N 40°41' E 014°17'5 8.0
2017-Nov-11 09:20N 40°35' E 014°16'823.3
2017-Nov-11 09:00N 40°43' E 014°16'4 2.9
2017-Nov-11 07:41N 40°47' E 014°18'426.1
2017-Nov-11 07:31N 40°42' E 014°18'7 8.2
2017-Nov-11 06:39N 40°35' E 014°16'426.8
2017-Nov-11 06:31N 40°39' E 014°17'7 0.5
2017-Nov-10 16:04N 40°46' E 014°18'121.3
2017-Nov-10 16:00N 40°44' E 014°18'8 6.1
2017-Nov-10 14:39N 40°36' E 014°17'325.1
2017-Nov-10 14:30N 40°39' E 014°18'  
Track history (hours):
 
Tides and Currents Weather Stations Pressure Air Temp Water Temp Dewpoint Dewpoint Depression Visibility Wind Speed Wind Dir Waves Ship Positions

Super Jet

Last reported at 2017-Nov-19 16:04 UTC. Time now 2017-Nov-19 21:54 UTC.
Position N 40°46' E 014°17'.

Length 45 m; draft 1.2 m.

Type: High speed craft. MMSI: 247540000.

Date/timePositionNaut miles runAvg speedWind from/ knotsBaromVisibWave heightAir tempDewpointWater temp
2017-Nov-19 16:04N 40°46' E 014°17'122.6
2017-Nov-19 16:00N 40°45' E 014°17'9 5.8
2017-Nov-19 14:21N 40°35' E 014°16'927.0
2017-Nov-19 14:01N 40°45' E 014°16'2 1.0
2017-Nov-19 12:13N 40°47' E 014°17'627.2
2017-Nov-19 12:01N 40°41' E 014°16'6 9.1
2017-Nov-19 11:21N 40°35' E 014°15'823.2
2017-Nov-19 11:01N 40°43' E 014°16'4 4.0
2017-Nov-19 10:08N 40°46' E 014°17'327.2
2017-Nov-19 10:01N 40°43' E 014°16'8 9.9
2017-Nov-19 09:12N 40°35' E 014°15'526.6
2017-Nov-19 09:01N 40°40' E 014°16'7 4.9
2017-Nov-19 07:39N 40°47' E 014°18'426.7
2017-Nov-19 07:30N 40°43' E 014°18'8 9.3
2017-Nov-19 06:38N 40°35' E 014°15'11 0.8
2017-Nov-18 16:08N 40°47' E 014°17'322.5
2017-Nov-18 16:00N 40°44' E 014°17'9 6.5
2017-Nov-18 14:40N 40°35' E 014°15'321.0
2017-Nov-18 14:30N 40°38' E 014°16'8 3.5
2017-Nov-18 12:13N 40°46' E 014°17'526.9
2017-Nov-18 12:00N 40°41' E 014°16'6 8.9
2017-Nov-18 11:22N 40°35' E 014°15'823.5
2017-Nov-18 11:00N 40°43' E 014°16'3 3.1
2017-Nov-18 10:08N 40°46' E 014°17'326.9
2017-Nov-18 10:01N 40°43' E 014°17'810.3
2017-Nov-18 09:14N 40°35' E 014°15'626.2
2017-Nov-18 09:00N 40°41' E 014°16'6 4.6
2017-Nov-18 07:39N 40°47' E 014°17'427.0
2017-Nov-18 07:31N 40°43' E 014°17'3 0.2
2017-Nov-17 16:04N 40°46' E 014°17'122.3
2017-Nov-17 16:01N 40°45' E 014°17'10 6.0
2017-Nov-17 14:23N 40°35' E 014°15'1026.4
2017-Nov-17 14:00N 40°45' E 014°17'1 0.7
2017-Nov-17 12:21N 40°46' E 014°18'824.8
2017-Nov-17 12:00N 40°38' E 014°17'2 4.5
2017-Nov-17 11:28N 40°35' E 014°16'1021.3
2017-Nov-17 11:00N 40°45' E 014°18'1 1.3
2017-Nov-17 10:11N 40°46' E 014°18'526.4
2017-Nov-17 10:00N 40°42' E 014°19'7 8.9
2017-Nov-17 09:16N 40°35' E 014°16'726.0
2017-Nov-17 09:00N 40°42' E 014°19'4 3.2
2017-Nov-17 07:40N 40°46' E 014°18'426.0
2017-Nov-17 07:31N 40°42' E 014°18'7 8.3
2017-Nov-17 06:39N 40°35' E 014°15'425.9
2017-Nov-17 06:30N 40°39' E 014°16'8 0.6
2017-Nov-16 16:11N 40°47' E 014°17'422.1
2017-Nov-16 16:00N 40°43' E 014°16'9 5.2
2017-Nov-16 14:22N 40°35' E 014°15'1027.5
2017-Nov-16 14:00N 40°45' E 014°17'2 1.0
2017-Nov-16 12:18N 40°47' E 014°17'724.8
2017-Nov-16 12:00N 40°39' E 014°16'5 7.3
2017-Nov-16 11:22N 40°35' E 014°15'923.7
2017-Nov-16 11:00N 40°43' E 014°17'3 4.1
2017-Nov-16 10:12N 40°46' E 014°17'526.5
2017-Nov-16 10:00N 40°41' E 014°17'7 8.2
2017-Nov-16 09:12N 40°35' E 014°16'527.3
2017-Nov-16 09:01N 40°40' E 014°17'6 4.6
2017-Nov-16 07:43N 40°46' E 014°17'526.1
2017-Nov-16 07:31N 40°41' E 014°17'6 7.3
2017-Nov-16 06:42N 40°35' E 014°15'525.7
2017-Nov-16 06:31N 40°40' E 014°17'8 0.5
2017-Nov-15 16:11N 40°47' E 014°17'421.8
2017-Nov-15 16:01N 40°43' E 014°16'8 2.5
2017-Nov-15 12:57N 40°36' E 014°17'510.4
2017-Nov-15 12:30N 40°38' E 014°23'6 5.1
2017-Nov-15 11:18N 40°35' E 014°15'725.9
2017-Nov-15 11:00N 40°43' E 014°16'4 4.2
2017-Nov-15 10:08N 40°46' E 014°17'326.4
2017-Nov-15 10:00N 40°43' E 014°17'810.0
2017-Nov-15 09:14N 40°35' E 014°15'524.5
2017-Nov-15 09:00N 40°41' E 014°16'6 4.8
2017-Nov-15 07:39N 40°47' E 014°17'426.7
2017-Nov-15 07:30N 40°43' E 014°17'810.0
2017-Nov-15 06:42N 40°35' E 014°15'12 0.9
2017-Nov-14 16:15N 40°47' E 014°17'521.0
2017-Nov-14 16:00N 40°42' E 014°17'7 4.5
2017-Nov-14 14:22N 40°35' E 014°15'926.9
2017-Nov-14 14:01N 40°44' E 014°17'2 1.4
2017-Nov-14 12:16N 40°47' E 014°17'725.8
2017-Nov-14 12:01N 40°40' E 014°16'5 7.3
2017-Nov-14 11:18N 40°35' E 014°16'825.8
2017-Nov-14 11:00N 40°43' E 014°17'4 5.2
2017-Nov-14 10:10N 40°47' E 014°17'426.4
2017-Nov-14 10:01N 40°43' E 014°16'810.0
2017-Nov-14 09:13N 40°35' E 014°16'525.5
2017-Nov-14 09:01N 40°40' E 014°17'8 5.9
2017-Nov-14 07:44N 40°48' E 014°16'625.7
2017-Nov-14 07:30N 40°42' E 014°15'7 9.3
2017-Nov-14 06:44N 40°35' E 014°16'625.5
2017-Nov-14 06:30N 40°40' E 014°17'5 0.1
2017-Nov-12 10:07N 40°46' E 014°17'326.6
2017-Nov-12 10:00N 40°43' E 014°16'810.3
2017-Nov-12 09:16N 40°35' E 014°15'725.0
2017-Nov-12 09:00N 40°42' E 014°16'4 3.2
2017-Nov-12 07:38N 40°46' E 014°17'326.6
2017-Nov-12 07:31N 40°43' E 014°16'8 9.2
2017-Nov-12 06:38N 40°35' E 014°15'326.7
2017-Nov-12 06:31N 40°39' E 014°16'7 0.5
2017-Nov-11 16:08N 40°46' E 014°17'322.2
2017-Nov-11 16:00N 40°43' E 014°17'8 5.0
2017-Nov-11 14:21N 40°35' E 014°16'926.7
2017-Nov-11 14:00N 40°44' E 014°17'2 0.9
2017-Nov-11 12:21N 40°45' E 014°17'926.6
2017-Nov-11 12:00N 40°36' E 014°16'0 0.6
2017-Nov-11 11:30N 40°36' E 014°16'1121.9
2017-Nov-11 10:59N 40°47' E 014°17'2 2.0
2017-Nov-11 10:12N 40°46' E 014°17'526.4
2017-Nov-11 10:01N 40°41' E 014°17'5 8.0
2017-Nov-11 09:20N 40°35' E 014°16'823.3
2017-Nov-11 09:00N 40°43' E 014°16'4 2.9
2017-Nov-11 07:41N 40°47' E 014°18'426.1
2017-Nov-11 07:31N 40°42' E 014°18'7 8.2
2017-Nov-11 06:39N 40°35' E 014°16'426.8
2017-Nov-11 06:31N 40°39' E 014°17'7 0.5
2017-Nov-10 16:04N 40°46' E 014°18'121.3
2017-Nov-10 16:00N 40°44' E 014°18'8 6.1
2017-Nov-10 14:39N 40°36' E 014°17'325.1
2017-Nov-10 14:30N 40°39' E 014°18'  

Dump ship's entire track history